Time;durP1;ratioP1;P1;durP2;ratioP2;P2;SDS_P1;SDS_P2;PMS_P1;PMS_P2;Temp;Humidity;BMP_temperature;BMP_pressure;BME280_temperature;BME280_humidity;BME280_pressure;Samples;Min_cycle;Max_cycle;Signal;HPM_P1;HPM_P2
2022/10/06 00:01:07;;;;;;;8.90;5.00;;;14.00;99.90;;;;;;4968542;28;20504;-68
2022/10/06 00:03:37;;;;;;;11.00;5.10;;;14.00;99.90;;;;;;4954542;28;20501;-69
2022/10/06 00:06:05;;;;;;;7.70;4.57;;;14.00;99.90;;;;;;4950529;28;20562;-68
2022/10/06 00:08:35;;;;;;;9.80;4.85;;;14.00;99.90;;;;;;4945409;29;20055;-68
2022/10/06 00:11:03;;;;;;;8.13;4.40;;;14.00;99.90;;;;;;4954083;28;20050;-68
2022/10/06 00:13:32;;;;;;;8.55;5.13;;;14.00;99.90;;;;;;4954183;28;20054;-68
2022/10/06 00:15:59;;;;;;;7.40;4.88;;;14.00;99.90;;;;;;4952205;28;20110;-67
2022/10/06 00:18:28;;;;;;;10.07;4.47;;;14.10;99.90;;;;;;4954347;28;20573;-68
2022/10/06 00:20:58;;;;;;;8.18;4.60;;;14.00;99.90;;;;;;4954234;28;20115;-67
2022/10/06 00:23:27;;;;;;;7.75;4.55;;;14.00;99.90;;;;;;4953691;28;20132;-68
2022/10/06 00:25:54;;;;;;;7.10;4.32;;;13.90;99.90;;;;;;4953712;28;20506;-67
2022/10/06 00:28:22;;;;;;;8.73;4.70;;;14.00;99.90;;;;;;4952636;29;20055;-69
2022/10/06 00:30:52;;;;;;;6.15;3.97;;;13.90;99.90;;;;;;4954232;28;20043;-70
2022/10/06 00:33:19;;;;;;;8.82;4.75;;;13.90;99.90;;;;;;4954254;28;20585;-69
2022/10/06 00:35:56;;;;;;;10.13;4.93;;;14.00;99.90;;;;;;4953769;28;20513;-69
2022/10/06 00:38:24;;;;;;;12.15;4.75;;;14.00;99.90;;;;;;4933670;29;20058;-69
2022/10/06 00:40:52;;;;;;;6.72;4.47;;;14.00;99.90;;;;;;4950947;29;20047;-69
2022/10/06 00:43:44;;;;;;;8.60;4.82;;;14.00;99.90;;;;;;4952525;29;20073;-69
2022/10/06 00:46:27;;;;;;;11.63;4.82;;;14.00;99.90;;;;;;4944027;29;20043;-70
2022/10/06 00:49:03;;;;;;;7.93;4.82;;;14.00;99.90;;;;;;4951767;29;20046;-70
2022/10/06 00:51:32;;;;;;;10.98;4.70;;;14.00;99.90;;;;;;4952927;29;20062;-69
2022/10/06 00:54:01;;;;;;;10.43;5.60;;;14.00;99.90;;;;;;4953566;28;20446;-69
2022/10/06 00:56:28;;;;;;;7.65;5.22;;;13.90;99.90;;;;;;4936345;29;20073;-69
2022/10/06 00:58:55;;;;;;;12.13;4.75;;;13.90;99.90;;;;;;4957210;28;20533;-70
2022/10/06 01:01:24;;;;;;;9.57;5.15;;;13.80;99.90;;;;;;4952508;29;20486;-69
2022/10/06 01:03:58;;;;;;;8.02;5.03;;;13.80;99.90;;;;;;4952075;29;20040;-69
2022/10/06 01:06:25;;;;;;;12.35;5.75;;;13.70;99.90;;;;;;4937199;29;20046;-69
2022/10/06 01:08:54;;;;;;;14.60;7.05;;;13.60;99.90;;;;;;4947123;29;20035;-68
2022/10/06 01:11:21;;;;;;;13.43;7.22;;;13.60;99.90;;;;;;4953348;28;20047;-70
2022/10/06 01:13:48;;;;;;;13.65;6.97;;;13.60;99.90;;;;;;4953856;28;20048;-69
2022/10/06 01:16:23;;;;;;;11.15;6.95;;;13.70;99.90;;;;;;4952243;29;20058;-69
2022/10/06 01:18:53;;;;;;;16.83;7.40;;;13.60;99.90;;;;;;4953035;28;20138;-70
2022/10/06 01:21:33;;;;;;;11.50;6.47;;;13.60;99.90;;;;;;4953328;28;20055;-69
2022/10/06 01:24:02;;;;;;;14.27;7.07;;;13.60;99.90;;;;;;4936399;29;20043;-69
2022/10/06 01:26:33;;;;;;;13.05;7.15;;;13.70;99.90;;;;;;4951493;29;20167;-69
2022/10/06 01:29:01;;;;;;;18.15;8.15;;;13.60;99.90;;;;;;4936050;29;20478;-69
2022/10/06 01:31:29;;;;;;;11.43;6.72;;;13.50;99.90;;;;;;4964376;28;20486;-68
2022/10/06 01:33:58;;;;;;;12.52;6.55;;;13.50;99.90;;;;;;4951042;28;20047;-66
2022/10/06 01:36:25;;;;;;;11.65;6.60;;;13.40;99.90;;;;;;4952191;28;20035;-68
2022/10/06 01:38:52;;;;;;;16.15;6.30;;;13.40;99.90;;;;;;4950827;28;20113;-67
2022/10/06 01:41:21;;;;;;;11.85;5.82;;;13.30;99.90;;;;;;4943748;28;20137;-67
2022/10/06 01:43:49;;;;;;;12.40;6.88;;;13.30;99.90;;;;;;4952442;28;20413;-67
2022/10/06 01:46:16;;;;;;;9.82;5.90;;;13.20;99.90;;;;;;4950986;28;20047;-69
2022/10/06 01:48:43;;;;;;;11.10;6.30;;;13.20;99.90;;;;;;4951140;29;20508;-70
2022/10/06 01:51:17;;;;;;;11.27;6.43;;;13.20;99.90;;;;;;4951243;29;20447;-68
2022/10/06 01:53:44;;;;;;;11.45;6.63;;;13.20;99.90;;;;;;4950936;28;20055;-68
2022/10/06 01:56:20;;;;;;;17.45;6.53;;;13.20;99.90;;;;;;5058019;28;20915;-67
2022/10/06 01:58:47;;;;;;;14.18;7.50;;;13.10;99.90;;;;;;5060253;28;20044;-67
2022/10/06 02:01:15;;;;;;;15.50;6.82;;;13.10;99.90;;;;;;5006509;28;20480;-68
2022/10/06 02:03:42;;;;;;;13.18;6.90;;;13.10;99.90;;;;;;5046122;28;20069;-67
2022/10/06 02:06:10;;;;;;;11.05;6.30;;;13.10;99.90;;;;;;5053820;28;20486;-67
2022/10/06 02:08:40;;;;;;;13.00;6.05;;;13.00;99.90;;;;;;5053062;28;20033;-68
2022/10/06 02:11:10;;;;;;;10.25;5.72;;;13.10;99.90;;;;;;5055445;28;20052;-67
2022/10/06 02:13:40;;;;;;;9.95;5.70;;;13.10;99.90;;;;;;5048826;28;20079;-67
2022/10/06 02:16:09;;;;;;;11.75;5.82;;;13.10;99.90;;;;;;5051804;28;20153;-67
2022/10/06 02:18:36;;;;;;;12.57;5.60;;;13.10;99.90;;;;;;5051258;28;20034;-68
2022/10/06 02:21:04;;;;;;;11.32;5.18;;;13.10;99.90;;;;;;5032018;28;20534;-68
2022/10/06 02:23:32;;;;;;;10.20;5.00;;;13.20;99.90;;;;;;5055988;28;20045;-67
2022/10/06 02:26:01;;;;;;;5.60;4.15;;;13.20;99.90;;;;;;5048222;28;20467;-67
2022/10/06 02:28:29;;;;;;;6.47;4.03;;;13.20;99.90;;;;;;5038535;28;20110;-67
2022/10/06 02:31:06;;;;;;;8.85;4.53;;;13.30;99.90;;;;;;5044304;28;20487;-67
2022/10/06 02:33:35;;;;;;;11.15;4.65;;;13.30;99.90;;;;;;5040433;28;20045;-67
2022/10/06 02:36:06;;;;;;;11.18;4.20;;;13.50;99.90;;;;;;5024758;28;20038;-67
2022/10/06 02:38:34;;;;;;;8.10;4.55;;;13.50;99.90;;;;;;5013038;28;20038;-68
2022/10/06 02:41:06;;;;;;;9.85;4.47;;;13.60;99.90;;;;;;5039195;28;20098;-67
2022/10/06 02:43:34;;;;;;;10.32;4.55;;;13.70;99.90;;;;;;5027578;28;20492;-67
2022/10/06 02:46:05;;;;;;;7.28;4.55;;;13.80;99.90;;;;;;5025993;28;20045;-69
2022/10/06 02:48:34;;;;;;;7.88;4.38;;;13.90;99.90;;;;;;5038539;28;20042;-68
2022/10/06 02:51:08;;;;;;;8.07;4.50;;;13.90;99.90;;;;;;5038327;28;20046;-68
2022/10/06 02:53:37;;;;;;;13.95;4.88;;;13.90;99.90;;;;;;5037702;28;20496;-67
2022/10/06 02:56:07;;;;;;;11.15;5.38;;;13.90;99.90;;;;;;5031187;28;20507;-68
2022/10/06 02:58:35;;;;;;;9.98;5.45;;;13.80;99.90;;;;;;5035004;28;20053;-68
2022/10/06 03:01:13;;;;;;;9.20;5.47;;;13.80;99.90;;;;;;5065161;28;20067;-68
2022/10/06 03:03:41;;;;;;;10.18;5.45;;;13.70;99.90;;;;;;5042525;28;20049;-67
2022/10/06 03:06:22;;;;;;;8.73;5.03;;;13.60;99.90;;;;;;5030854;28;20049;-68
2022/10/06 03:09:05;;;;;;;7.65;4.40;;;13.60;99.90;;;;;;5018485;28;20515;-68
2022/10/06 03:11:37;;;;;;;12.85;5.63;;;13.70;99.90;;;;;;5026089;28;20045;-67
2022/10/06 03:14:05;;;;;;;10.77;4.53;;;13.70;99.90;;;;;;5038260;28;20046;-67
2022/10/06 03:16:37;;;;;;;10.30;4.68;;;13.70;99.90;;;;;;5020971;28;20045;-67
2022/10/06 03:19:08;;;;;;;10.35;4.65;;;13.70;99.90;;;;;;5028781;28;20120;-67
2022/10/06 03:21:40;;;;;;;8.82;4.80;;;13.80;99.90;;;;;;5023666;28;20064;-67
2022/10/06 03:24:07;;;;;;;11.57;5.57;;;13.80;99.90;;;;;;5021699;28;20092;-67
2022/10/06 03:26:39;;;;;;;10.40;6.07;;;13.90;99.90;;;;;;5028774;28;20072;-67
2022/10/06 03:29:08;;;;;;;13.05;6.28;;;13.90;99.90;;;;;;5027139;28;20045;-68
2022/10/06 03:31:42;;;;;;;13.30;6.03;;;13.90;99.90;;;;;;5011702;28;20060;-68
2022/10/06 03:34:13;;;;;;;9.98;5.60;;;13.80;99.90;;;;;;5023551;28;20497;-67
2022/10/06 03:36:43;;;;;;;12.70;5.65;;;13.80;99.90;;;;;;5020295;28;20139;-70
2022/10/06 03:39:11;;;;;;;10.43;5.03;;;13.80;99.90;;;;;;4994693;28;20406;-67
2022/10/06 03:41:39;;;;;;;13.60;6.10;;;13.80;99.90;;;;;;5010251;28;20128;-67
2022/10/06 03:44:08;;;;;;;9.90;5.60;;;13.70;99.90;;;;;;5061006;28;20504;-67
2022/10/06 03:46:38;;;;;;;9.85;5.18;;;13.70;99.90;;;;;;5028656;28;20056;-67
2022/10/06 03:49:06;;;;;;;10.23;5.15;;;13.70;99.90;;;;;;5029731;28;20495;-68
2022/10/06 03:51:39;;;;;;;9.35;5.05;;;13.80;99.90;;;;;;5022509;28;20449;-67
2022/10/06 03:54:11;;;;;;;8.35;4.70;;;13.80;99.90;;;;;;5027481;28;20050;-67
2022/10/06 03:56:42;;;;;;;12.40;5.70;;;13.90;99.90;;;;;;5028986;28;20189;-68
2022/10/06 03:59:14;;;;;;;12.77;5.28;;;13.90;99.90;;;;;;5030009;28;20447;-68
2022/10/06 04:01:44;;;;;;;;;;;13.90;99.90;;;;;;5028573;28;20064;-67
2022/10/06 04:04:14;;;;;;;7.60;4.20;;;13.90;99.90;;;;;;5029705;28;20015;-68
2022/10/06 04:06:43;;;;;;;10.63;5.25;;;13.90;99.90;;;;;;5013174;28;20046;-67
2022/10/06 04:09:15;;;;;;;14.27;4.43;;;13.80;99.90;;;;;;5029015;28;20452;-67
2022/10/06 04:11:44;;;;;;;8.95;4.68;;;13.80;99.90;;;;;;5029579;28;20124;-67
2022/10/06 04:14:14;;;;;;;10.43;4.57;;;13.70;99.90;;;;;;5013389;28;20124;-67
2022/10/06 04:16:45;;;;;;;11.57;4.88;;;13.70;99.90;;;;;;5021856;28;20116;-68
2022/10/06 04:19:16;;;;;;;10.07;5.00;;;13.70;99.90;;;;;;5021399;28;20041;-68
2022/10/06 04:21:47;;;;;;;9.05;5.25;;;13.70;99.90;;;;;;5028455;28;20141;-67
2022/10/06 04:24:19;;;;;;;13.25;5.28;;;13.70;99.90;;;;;;5028449;28;20045;-67
2022/10/06 04:26:48;;;;;;;13.65;5.43;;;13.80;99.90;;;;;;5026862;28;20547;-67
2022/10/06 04:29:17;;;;;;;9.75;5.20;;;13.70;99.90;;;;;;5029494;28;20573;-67
2022/10/06 04:31:49;;;;;;;9.70;4.75;;;13.60;99.90;;;;;;5021463;28;20037;-68
2022/10/06 04:34:45;;;;;;;13.40;5.90;;;13.60;99.90;;;;;;5015774;28;20211;-67
2022/10/06 04:37:13;;;;;;;10.27;5.80;;;13.50;99.90;;;;;;5017590;28;20132;-67
2022/10/06 04:39:42;;;;;;;10.35;5.53;;;13.50;99.90;;;;;;5019194;28;20064;-67
2022/10/06 04:42:10;;;;;;;10.57;4.78;;;13.50;99.90;;;;;;5029964;28;20055;-67
2022/10/06 04:44:37;;;;;;;10.55;5.50;;;13.60;99.90;;;;;;5027946;28;20069;-67
2022/10/06 04:47:05;;;;;;;10.77;5.75;;;13.60;99.90;;;;;;5029191;28;20045;-67
2022/10/06 04:49:33;;;;;;;10.40;5.78;;;13.60;99.90;;;;;;5029355;28;20140;-67
2022/10/06 04:52:01;;;;;;;8.00;5.50;;;13.70;99.90;;;;;;5006755;28;20103;-68
2022/10/06 04:54:31;;;;;;;13.77;5.00;;;13.70;99.90;;;;;;5028460;28;20072;-67
2022/10/06 04:57:02;;;;;;;10.27;5.30;;;13.70;99.90;;;;;;5025981;28;20049;-68
2022/10/06 05:02:18;;;;;;;10.40;6.20;;;13.80;99.90;;;;;;5021283;28;20037;-67
2022/10/06 05:04:49;;;;;;;11.05;5.82;;;13.80;99.90;;;;;;5027889;28;20492;-67
2022/10/06 05:07:18;;;;;;;11.23;5.65;;;13.80;99.90;;;;;;5021317;28;20038;-66
2022/10/06 05:09:45;;;;;;;8.23;4.90;;;13.90;99.90;;;;;;5024207;28;20057;-69
2022/10/06 05:12:13;;;;;;;15.25;5.40;;;13.90;99.90;;;;;;5010093;28;20042;-72
2022/10/06 05:14:40;;;;;;;11.35;5.15;;;14.00;99.90;;;;;;5016321;28;20430;-68
2022/10/06 05:17:08;;;;;;;10.55;5.55;;;14.00;99.90;;;;;;5012691;28;20042;-68
2022/10/06 05:19:36;;;;;;;12.60;6.25;;;14.00;99.90;;;;;;5012104;28;20407;-68
2022/10/06 05:22:05;;;;;;;12.10;5.80;;;14.00;99.90;;;;;;5014872;28;20048;-68
2022/10/06 05:24:33;;;;;;;12.27;5.68;;;14.00;99.90;;;;;;5029441;28;20096;-68
2022/10/06 05:27:02;;;;;;;12.60;5.65;;;14.00;99.90;;;;;;4994779;28;20137;-67
2022/10/06 05:29:33;;;;;;;10.55;5.22;;;14.00;99.90;;;;;;5012000;28;20124;-69
2022/10/06 05:32:02;;;;;;;11.85;5.68;;;14.00;99.90;;;;;;5018007;28;20047;-67
2022/10/06 05:34:29;;;;;;;12.70;5.43;;;14.00;99.90;;;;;;5017894;28;20492;-67
2022/10/06 05:36:57;;;;;;;9.23;5.53;;;14.10;99.90;;;;;;5010966;28;20500;-68
2022/10/06 05:39:24;;;;;;;16.15;5.35;;;14.20;99.90;;;;;;5008519;28;20052;-68
2022/10/06 05:41:55;;;;;;;13.03;4.83;;;14.20;99.90;;;;;;5013702;28;20745;-69
2022/10/06 05:44:24;;;;;;;11.68;5.90;;;14.30;99.90;;;;;;5011291;28;20065;-68
2022/10/06 05:46:52;;;;;;;17.23;6.75;;;14.30;99.90;;;;;;5016419;28;20128;-68
2022/10/06 05:49:19;;;;;;;11.40;5.88;;;14.40;99.90;;;;;;5011643;28;20038;-69
2022/10/06 05:51:52;;;;;;;10.20;5.50;;;14.50;99.90;;;;;;5021030;28;20049;-69
2022/10/06 05:54:24;;;;;;;11.80;5.18;;;14.50;99.90;;;;;;5025981;28;20042;-68
2022/10/06 05:56:52;;;;;;;9.30;4.97;;;14.50;99.90;;;;;;5020247;28;20045;-68
2022/10/06 05:59:19;;;;;;;10.70;5.00;;;14.60;99.90;;;;;;5015408;28;20045;-68
2022/10/06 06:01:50;;;;;;;13.63;5.28;;;14.60;99.90;;;;;;5027119;28;20492;-68
2022/10/06 06:04:30;;;;;;;12.50;5.80;;;14.60;99.90;;;;;;5022869;28;20042;-68
2022/10/06 06:06:57;;;;;;;10.82;5.88;;;14.60;99.90;;;;;;5026058;28;20041;-68
2022/10/06 06:09:27;;;;;;;14.00;5.78;;;14.70;99.90;;;;;;5023433;28;20124;-67
2022/10/06 06:11:59;;;;;;;13.70;6.55;;;14.70;99.90;;;;;;5028273;28;20049;-68
2022/10/06 06:17:24;;;;;;;14.32;6.50;;;14.80;99.90;;;;;;5021415;28;20365;-67
2022/10/06 06:19:51;;;;;;;13.85;5.70;;;14.80;99.90;;;;;;5023435;28;20046;-68
2022/10/06 06:22:18;;;;;;;12.15;5.90;;;14.80;99.90;;;;;;5009477;28;20448;-68
2022/10/06 06:24:48;;;;;;;12.60;5.95;;;14.80;99.90;;;;;;5009198;28;20045;-68
2022/10/06 06:27:16;;;;;;;13.18;6.13;;;14.80;99.90;;;;;;5016852;28;20041;-68
2022/10/06 06:29:44;;;;;;;9.25;5.00;;;14.80;99.90;;;;;;5044233;28;20029;-67
2022/10/06 06:32:12;;;;;;;9.65;5.20;;;14.90;99.90;;;;;;5011041;28;20082;-68
2022/10/06 06:34:40;;;;;;;12.18;5.28;;;14.90;99.90;;;;;;5009257;28;20107;-67
2022/10/06 06:37:09;;;;;;;13.48;5.63;;;14.90;99.90;;;;;;4995484;28;20054;-67
2022/10/06 06:39:41;;;;;;;11.93;5.85;;;14.90;99.90;;;;;;5003064;28;20045;-68
2022/10/06 06:42:08;;;;;;;14.10;5.72;;;14.90;99.90;;;;;;5010736;28;20057;-67
2022/10/06 06:44:55;;;;;;;14.80;5.50;;;15.00;99.90;;;;;;5027697;28;20068;-68
2022/10/06 06:47:36;;;;;;;9.82;4.90;;;14.90;99.90;;;;;;5031458;28;20117;-69
2022/10/06 06:50:09;;;;;;;12.20;4.90;;;14.90;99.90;;;;;;5030938;28;20419;-67
2022/10/06 06:52:40;;;;;;;11.18;5.53;;;15.00;99.90;;;;;;5026298;28;20052;-68
2022/10/06 06:55:10;;;;;;;13.50;5.43;;;15.00;99.90;;;;;;5032153;28;20727;-67
2022/10/06 06:57:37;;;;;;;14.02;4.90;;;15.00;99.90;;;;;;5029894;28;20052;-67
2022/10/06 07:00:07;;;;;;;8.55;4.75;;;15.00;99.90;;;;;;5031540;28;20111;-68
2022/10/06 07:02:37;;;;;;;12.23;4.90;;;15.00;99.90;;;;;;5031411;28;20384;-67
2022/10/06 07:05:04;;;;;;;10.50;4.80;;;15.00;99.90;;;;;;5032656;28;20136;-68
2022/10/06 07:07:32;;;;;;;10.77;4.50;;;15.00;99.90;;;;;;5013669;28;20054;-68
2022/10/06 07:10:00;;;;;;;9.70;5.20;;;15.10;99.90;;;;;;5030941;28;20139;-68
2022/10/06 07:12:30;;;;;;;12.43;5.45;;;15.10;99.90;;;;;;5010934;28;20522;-67
2022/10/06 07:26:16;;;;;;;8.63;4.85;;;15.10;99.90;;;;;;5029470;28;20045;-69
2022/10/06 07:28:44;;;;;;;8.95;4.80;;;15.10;99.90;;;;;;5014175;28;20044;-66
2022/10/06 07:31:17;;;;;;;11.82;4.60;;;15.10;99.90;;;;;;5019815;28;20048;-66
2022/10/06 07:33:46;;;;;;;;;;;15.10;99.90;;;;;;5017851;28;20467;-68
2022/10/06 07:36:15;;;;;;;7.53;4.43;;;15.20;99.90;;;;;;5028340;28;19928;-67
2022/10/06 07:38:43;;;;;;;6.93;4.13;;;15.10;99.90;;;;;;5030702;28;20042;-69
2022/10/06 07:41:10;;;;;;;9.93;4.10;;;15.10;99.90;;;;;;5031917;28;20392;-67
2022/10/06 07:43:52;;;;;;;7.10;4.20;;;15.10;99.90;;;;;;5031463;28;20046;-69
2022/10/06 07:46:21;;;;;;;9.50;3.55;;;15.20;99.90;;;;;;5024821;28;20400;-69
2022/10/06 07:49:16;;;;;;;10.82;3.88;;;15.20;99.90;;;;;;5028219;28;20061;-68
2022/10/06 07:51:44;;;;;;;5.75;3.05;;;15.00;99.90;;;;;;5006774;28;20077;-67
2022/10/06 07:54:11;;;;;;;5.90;3.03;;;14.90;99.90;;;;;;5058034;28;20075;-68
2022/10/06 07:56:53;;;;;;;6.72;3.28;;;14.80;99.90;;;;;;5003795;28;20060;-68
2022/10/06 07:59:20;;;;;;;7.22;2.33;;;14.80;99.90;;;;;;5028962;28;20488;-69
2022/10/06 08:01:49;;;;;;;7.28;2.58;;;14.90;99.90;;;;;;5020534;28;20041;-67
2022/10/06 08:04:17;;;;;;;7.25;2.50;;;14.90;99.90;;;;;;5018976;28;20442;-68
2022/10/06 08:06:48;;;;;;;5.88;2.28;;;14.90;99.90;;;;;;5013686;28;20144;-69
2022/10/06 08:09:15;;;;;;;5.60;2.63;;;14.90;99.90;;;;;;5024872;28;20172;-67
2022/10/06 08:11:43;;;;;;;4.32;1.90;;;14.90;99.90;;;;;;5025604;28;20208;-68
2022/10/06 08:14:13;;;;;;;9.07;2.10;;;15.00;99.90;;;;;;5028524;28;20061;-67
2022/10/06 08:16:41;;;;;;;7.00;2.17;;;15.00;99.90;;;;;;5020458;28;20417;-68
2022/10/06 08:19:10;;;;;;;5.30;2.10;;;15.00;99.90;;;;;;5022128;28;20049;-66
2022/10/06 08:21:38;;;;;;;8.35;1.95;;;14.90;99.90;;;;;;5028837;28;20468;-67
2022/10/06 08:24:06;;;;;;;4.95;1.90;;;14.80;99.90;;;;;;5022506;28;20065;-67
2022/10/06 08:26:33;;;;;;;5.30;2.00;;;14.80;99.90;;;;;;5024455;28;20052;-68
2022/10/06 08:29:02;;;;;;;3.60;1.50;;;14.90;99.90;;;;;;5009318;28;20052;-68
2022/10/06 08:31:30;;;;;;;7.68;1.92;;;14.80;99.90;;;;;;5027455;28;20403;-68
2022/10/06 08:33:58;;;;;;;4.50;1.77;;;14.80;99.90;;;;;;5018818;28;20048;-68
2022/10/06 08:36:26;;;;;;;5.22;1.50;;;14.70;99.90;;;;;;5018273;28;20052;-68
2022/10/06 08:38:59;;;;;;;6.85;1.95;;;14.70;99.90;;;;;;5005032;28;20030;-68
2022/10/06 08:41:42;;;;;;;8.98;2.28;;;14.70;99.90;;;;;;5054796;28;20053;-67
2022/10/06 08:44:16;;;;;;;7.53;2.13;;;14.70;99.90;;;;;;5019202;28;20034;-68
2022/10/06 08:46:59;;;;;;;8.27;1.92;;;14.60;99.90;;;;;;5006139;28;20488;-67
2022/10/06 08:49:37;;;;;;;5.53;1.75;;;14.60;99.90;;;;;;5011714;28;20065;-67
2022/10/06 08:52:04;;;;;;;4.10;1.40;;;14.60;99.90;;;;;;5047237;28;20042;-68
2022/10/06 08:54:46;;;;;;;4.85;1.90;;;14.70;99.90;;;;;;5021634;28;20045;-68
2022/10/06 08:57:28;;;;;;;7.57;1.98;;;14.90;99.90;;;;;;5018427;28;20034;-67
2022/10/06 08:59:56;;;;;;;;;;;15.00;99.90;;;;;;5024011;28;20096;-67
2022/10/06 09:02:40;;;;;;;7.10;2.20;;;15.00;99.90;;;;;;5010466;28;19925;-68
2022/10/06 09:05:12;;;;;;;8.18;2.05;;;15.10;99.90;;;;;;5019219;28;20057;-67
2022/10/06 09:07:43;;;;;;;;;;;15.20;99.90;;;;;;5024866;28;20045;-67
2022/10/06 09:10:29;;;;;;;4.45;1.70;;;15.30;99.90;;;;;;5009061;28;19921;-68
2022/10/06 09:13:04;;;;;;;8.55;2.10;;;15.50;99.90;;;;;;5023384;28;20166;-67
2022/10/06 09:15:37;;;;;;;6.18;2.33;;;15.70;99.90;;;;;;5022202;28;20456;-67
2022/10/06 09:18:14;;;;;;;6.57;2.10;;;15.70;99.90;;;;;;5024693;28;20065;-67
2022/10/06 09:21:03;;;;;;;5.50;2.03;;;15.70;99.90;;;;;;5015673;28;20796;-68
2022/10/06 09:23:48;;;;;;;7.75;2.20;;;15.90;99.90;;;;;;5011214;28;20050;-67
2022/10/06 09:26:21;;;;;;;8.10;2.17;;;16.40;99.90;;;;;;5017178;28;20144;-68
2022/10/06 09:28:50;;;;;;;7.22;2.22;;;16.40;99.90;;;;;;5013699;28;20493;-68
2022/10/06 09:31:30;;;;;;;6.47;2.30;;;16.60;99.90;;;;;;5022691;28;20140;-70
2022/10/06 09:34:33;;;;;;;6.55;1.83;;;17.00;99.90;;;;;;5020022;28;20050;-68
2022/10/06 09:37:07;;;;;;;5.43;2.17;;;17.30;99.90;;;;;;5045170;28;20034;-69
2022/10/06 09:39:37;;;;;;;7.38;2.30;;;17.10;99.90;;;;;;5014734;28;20056;-69
2022/10/06 09:42:21;;;;;;;6.88;2.58;;;17.00;99.90;;;;;;5018878;28;20069;-68
2022/10/06 09:45:00;;;;;;;3.20;2.00;;;16.60;99.90;;;;;;5015923;28;20616;-68
2022/10/06 09:47:38;;;;;;;7.20;2.50;;;16.70;99.90;;;;;;5016844;28;20038;-66
2022/10/06 09:50:11;;;;;;;8.52;2.42;;;16.60;99.90;;;;;;5012622;28;20050;-66
2022/10/06 09:52:43;;;;;;;7.35;2.50;;;16.70;99.90;;;;;;5020055;28;20113;-68
2022/10/06 09:55:15;;;;;;;5.72;2.28;;;16.90;99.90;;;;;;5026724;28;20052;-68
2022/10/06 09:57:50;;;;;;;3.97;2.03;;;17.00;99.90;;;;;;5022232;28;20504;-68
2022/10/06 10:00:51;;;;;;;6.15;2.22;;;17.20;99.90;;;;;;5013844;28;20417;-67
2022/10/06 10:03:20;;;;;;;10.75;2.70;;;17.50;99.90;;;;;;5007140;28;20041;-68
2022/10/06 10:05:50;;;;;;;4.35;2.40;;;17.60;99.90;;;;;;5019518;28;20365;-67
2022/10/06 10:08:24;;;;;;;5.80;2.50;;;17.80;99.90;;;;;;5018261;28;20041;-68
2022/10/06 10:11:06;;;;;;;5.18;2.45;;;18.00;99.90;;;;;;5017836;28;20158;-67
2022/10/06 10:13:43;;;;;;;5.88;2.60;;;18.00;99.90;;;;;;5014946;28;20157;-70
2022/10/06 10:16:15;;;;;;;5.70;2.80;;;18.10;99.90;;;;;;5012902;28;20041;-69
2022/10/06 10:18:46;;;;;;;;;;;18.30;99.90;;;;;;5025493;28;20519;-69
2022/10/06 10:21:24;;;;;;;5.85;2.40;;;18.70;99.90;;;;;;5026644;28;19944;-69
2022/10/06 10:23:58;;;;;;;11.98;2.83;;;19.40;99.90;;;;;;5028161;28;20034;-71
2022/10/06 10:26:28;;;;;;;6.20;2.75;;;19.30;99.90;;;;;;5028675;28;20388;-70
2022/10/06 10:29:14;;;;;;;5.57;2.33;;;18.80;99.90;;;;;;4994121;28;20057;-70
2022/10/06 10:32:10;;;;;;;4.03;2.50;;;18.60;99.90;;;;;;5030796;28;20500;-68
2022/10/06 10:35:05;;;;;;;5.03;2.72;;;18.40;99.90;;;;;;5027787;28;20037;-67
2022/10/06 10:37:39;;;;;;;4.15;2.47;;;18.40;99.90;;;;;;5052831;28;20049;-68
2022/10/06 10:40:25;;;;;;;5.95;2.55;;;18.70;99.90;;;;;;5031896;28;20037;-70
2022/10/06 10:43:01;;;;;;;7.03;3.35;;;18.80;99.90;;;;;;5033379;28;20034;-68
2022/10/06 10:45:34;;;;;;;3.83;2.60;;;18.90;99.90;;;;;;5033124;28;20403;-67
2022/10/06 10:48:20;;;;;;;4.60;2.70;;;19.00;99.90;;;;;;5033058;28;20522;-67
2022/10/06 10:51:08;;;;;;;5.68;2.70;;;19.40;99.90;;;;;;5032764;28;20626;-68
2022/10/06 10:53:58;;;;;;;5.22;2.88;;;19.50;99.90;;;;;;5021904;28;20069;-68
2022/10/06 10:56:26;;;;;;;5.97;2.85;;;19.70;99.90;;;;;;5028143;28;20076;-67
2022/10/06 10:59:14;;;;;;;5.65;2.88;;;19.70;99.90;;;;;;5060717;28;20479;-70
2022/10/06 11:01:53;;;;;;;3.88;2.75;;;20.00;99.90;;;;;;5028965;28;20053;-70
2022/10/06 11:04:21;;;;;;;7.40;3.20;;;20.40;99.90;;;;;;5022844;28;20420;-73
2022/10/06 11:07:20;;;;;;;5.07;2.75;;;20.60;99.90;;;;;;5016632;28;20056;-70
2022/10/06 11:09:58;;;;;;;7.47;3.00;;;21.00;99.90;;;;;;5032291;28;20228;-68
2022/10/06 11:12:57;;;;;;;4.93;2.70;;;20.80;99.90;;;;;;5025430;28;20556;-70
2022/10/06 11:15:35;;;;;;;4.53;2.85;;;21.10;99.90;;;;;;5030205;28;20133;-67
2022/10/06 11:18:34;;;;;;;6.57;3.08;;;21.20;99.90;;;;;;5031823;28;20037;-68
2022/10/06 11:21:30;;;;;;;4.50;2.90;;;20.80;99.90;;;;;;5030340;28;20050;-68
2022/10/06 11:24:14;;;;;;;6.13;3.40;;;20.40;99.90;;;;;;5010891;28;20509;-69
2022/10/06 11:27:03;;;;;;;5.38;3.20;;;20.50;99.90;;;;;;5023573;28;20136;-67
2022/10/06 11:29:35;;;;;;;6.72;3.45;;;20.70;99.90;;;;;;5016896;28;20050;-67
2022/10/06 11:32:20;;;;;;;7.15;3.75;;;20.60;99.90;;;;;;5023619;28;20045;-68
2022/10/06 11:34:49;;;;;;;5.35;3.08;;;20.60;99.90;;;;;;5029193;28;20056;-70
2022/10/06 11:37:40;;;;;;;5.53;3.13;;;20.70;99.90;;;;;;5030828;28;20057;-68
2022/10/06 11:40:30;;;;;;;8.27;3.70;;;20.60;99.90;;;;;;5042116;28;20038;-68
2022/10/06 11:43:18;;;;;;;5.45;2.90;;;20.80;99.90;;;;;;5020416;28;20034;-68
2022/10/06 11:46:01;;;;;;;5.32;3.28;;;21.20;99.90;;;;;;5029922;28;20488;-70
2022/10/06 11:48:30;;;;;;;4.10;3.08;;;21.40;99.90;;;;;;5011450;28;20458;-68
2022/10/06 11:51:16;;;;;;;5.60;3.05;;;21.10;99.90;;;;;;5023225;28;20076;-68
2022/10/06 11:53:44;;;;;;;7.07;3.15;;;21.40;99.90;;;;;;5020381;28;20067;-69
2022/10/06 11:56:17;;;;;;;4.38;3.20;;;21.70;99.90;;;;;;5017671;28;20467;-69
2022/10/06 11:58:50;;;;;;;6.90;3.33;;;22.00;99.90;;;;;;5025301;28;20411;-68
2022/10/06 12:01:46;;;;;;;4.50;3.05;;;22.20;99.90;;;;;;5021010;28;20411;-68
2022/10/06 12:04:16;;;;;;;4.25;3.17;;;22.80;99.90;;;;;;5043520;28;20108;-68
2022/10/06 12:06:51;;;;;;;4.88;3.28;;;23.20;99.90;;;;;;5015547;28;20045;-72
2022/10/06 12:09:25;;;;;;;6.45;3.20;;;23.70;99.90;;;;;;5015509;28;20057;-69
2022/10/06 12:11:54;;;;;;;7.93;3.67;;;23.60;99.90;;;;;;5011436;28;20046;-69
2022/10/06 12:14:30;;;;;;;6.72;3.90;;;22.60;99.90;;;;;;5010256;28;20475;-68
2022/10/06 12:17:26;;;;;;;6.93;4.03;;;22.40;99.90;;;;;;5021362;28;20403;-68
2022/10/06 12:20:13;;;;;;;4.57;3.78;;;21.90;99.90;;;;;;5015413;28;20041;-69
2022/10/06 12:22:51;;;;;;;6.00;3.60;;;21.60;99.90;;;;;;5023213;28;20049;-67
2022/10/06 12:25:47;;;;;;;7.63;3.90;;;22.60;99.90;;;;;;5016785;28;20065;-70
2022/10/06 12:28:33;;;;;;;4.57;3.50;;;23.10;99.90;;;;;;4998711;28;20072;-69
2022/10/06 12:31:21;;;;;;;6.10;3.75;;;23.80;99.90;;;;;;5021089;28;20469;-68
2022/10/06 12:33:49;;;;;;;5.07;4.50;;;25.00;99.90;;;;;;5026542;28;20065;-68
2022/10/06 12:36:21;;;;;;;6.20;4.60;;;25.70;99.90;;;;;;5028892;28;20379;-71
2022/10/06 12:39:21;;;;;;;5.38;4.88;;;27.10;99.90;;;;;;5025048;28;20111;-68
2022/10/06 12:42:02;;;;;;;5.55;4.60;;;26.10;99.90;;;;;;5027821;28;20069;-68
2022/10/06 12:44:39;;;;;;;6.72;4.95;;;25.00;99.90;;;;;;5030015;28;20392;-69
2022/10/06 12:47:15;;;;;;;5.70;4.78;;;24.70;99.90;;;;;;4993338;28;20396;-67
2022/10/06 12:50:11;;;;;;;6.75;4.28;;;24.30;99.90;;;;;;5028744;28;20167;-69
2022/10/06 12:52:43;;;;;;;4.57;4.18;;;26.60;99.90;;;;;;5022361;28;20049;-69
2022/10/06 12:55:32;;;;;;;5.97;4.40;;;26.60;99.90;;;;;;5018628;28;20057;-69
2022/10/06 12:58:00;;;;;;;6.53;5.07;;;26.00;99.90;;;;;;5023843;28;20047;-67
2022/10/06 13:00:35;;;;;;;4.97;4.43;;;28.00;99.90;;;;;;5024261;28;20033;-68
2022/10/06 13:03:06;;;;;;;5.32;4.85;;;29.50;98.40;;;;;;5025075;28;20137;-68
2022/10/06 13:05:35;;;;;;;5.60;5.10;;;31.20;94.50;;;;;;5029996;28;20464;-68
2022/10/06 13:08:05;;;;;;;5.28;4.70;;;30.50;92.50;;;;;;5027850;28;20057;-69
2022/10/06 13:10:33;;;;;;;6.55;4.30;;;31.30;91.10;;;;;;4993150;28;20424;-68
2022/10/06 13:13:00;;;;;;;5.32;4.82;;;32.10;89.60;;;;;;5028810;28;20113;-67
2022/10/06 13:15:33;;;;;;;8.55;5.40;;;33.90;85.30;;;;;;5018477;28;20092;-67
2022/10/06 13:18:10;;;;;;;5.32;4.82;;;34.60;78.80;;;;;;5040382;28;20037;-70
2022/10/06 13:20:48;;;;;;;6.95;4.97;;;33.70;76.70;;;;;;5029325;28;20124;-70
2022/10/06 13:23:24;;;;;;;6.00;5.40;;;33.90;76.50;;;;;;5029999;28;20041;-69
2022/10/06 13:25:51;;;;;;;5.50;5.00;;;35.60;73.00;;;;;;5026223;28;20064;-69
2022/10/06 13:28:18;;;;;;;5.95;5.30;;;34.90;71.70;;;;;;5018366;28;20373;-68
2022/10/06 13:30:57;;;;;;;5.93;5.30;;;36.00;70.60;;;;;;5016209;28;20559;-69